Hannes — H9GX — position and weather

sailwx.info

Track history (hours):
 
Tides and Currents Weather Stations Pressure Air Temp Water Temp Dewpoint Dewpoint Depression Visibility Wind Speed Wind Dir Waves Ship Positions

Hannes

Last reported at 2014-Nov-30 04:31 UTC. Time now 2014-Dec-21 01:54 UTC.
Position N 38°10' E 024°53'.
Warning: this ship's position is 20 days out of date.

Length 103 m; draft 4.4 m.

Type: Cargo ship. MMSI: 352913000.

Date/timePositionNaut miles runAvg speedWind from/ knotsBaromVisibWave heightAir tempDewpointWater temp
2014-Nov-30 04:31N 38°10' E 024°53'1610.9
2014-Nov-30 03:03N 37°58' E 024°40'611.3
2014-Nov-30 02:33N 37°53' E 024°36'1010.6
2014-Nov-30 01:33N 37°43' E 024°30'1110.6
2014-Nov-30 00:33N 37°34' E 024°24'1010.5
2014-Nov-29 23:33N 37°25' E 024°18'1010.2
2014-Nov-29 22:33N 37°16' E 024°11'1110.6
2014-Nov-29 21:33N 37°08' E 024°03'1110.9
2014-Nov-29 20:33N 36°58' E 023°56'1111.0
2014-Nov-29 19:33N 36°50' E 023°47'1110.6
2014-Nov-29 18:33N 36°41' E 023°40'1010.2
2014-Nov-29 17:33N 36°32' E 023°33'1110.1
2014-Nov-29 16:28N 36°23' E 023°25'  
2014-Nov-23 18:07N 36°00' W 005°12'611.0
2014-Nov-23 17:34N 35°60' W 005°19'  
Track history (hours):
 
Tides and Currents Weather Stations Pressure Air Temp Water Temp Dewpoint Dewpoint Depression Visibility Wind Speed Wind Dir Waves Ship Positions

Hannes

Last reported at 2014-Nov-30 04:31 UTC. Time now 2014-Dec-21 01:54 UTC.
Position N 38°10' E 024°53'.
Warning: this ship's position is 20 days out of date.

Length 103 m; draft 4.4 m.

Type: Cargo ship. MMSI: 352913000.

Date/timePositionNaut miles runAvg speedWind from/ knotsBaromVisibWave heightAir tempDewpointWater temp
2014-Nov-30 04:31N 38°10' E 024°53'1610.9
2014-Nov-30 03:03N 37°58' E 024°40'611.3
2014-Nov-30 02:33N 37°53' E 024°36'1010.6
2014-Nov-30 01:33N 37°43' E 024°30'1110.6
2014-Nov-30 00:33N 37°34' E 024°24'1010.5
2014-Nov-29 23:33N 37°25' E 024°18'1010.2
2014-Nov-29 22:33N 37°16' E 024°11'1110.6
2014-Nov-29 21:33N 37°08' E 024°03'1110.9
2014-Nov-29 20:33N 36°58' E 023°56'1111.0
2014-Nov-29 19:33N 36°50' E 023°47'1110.6
2014-Nov-29 18:33N 36°41' E 023°40'1010.2
2014-Nov-29 17:33N 36°32' E 023°33'1110.1
2014-Nov-29 16:28N 36°23' E 023°25'  
2014-Nov-23 18:07N 36°00' W 005°12'611.0
2014-Nov-23 17:34N 35°60' W 005°19'  

Dump ship's entire track history